sensor_id;sensor_type;location;lat;lon;timestamp;temperature;humidity
17381;DHT22;8808;52.478;13.378;2023-03-24T00:00:09;11.70;99.90
17381;DHT22;8808;52.478;13.378;2023-03-24T00:02:38;11.70;99.90
17381;DHT22;8808;52.478;13.378;2023-03-24T00:05:07;11.70;99.90
17381;DHT22;8808;52.478;13.378;2023-03-24T00:07:35;11.80;99.90
17381;DHT22;8808;52.478;13.378;2023-03-24T00:10:05;11.80;99.90
17381;DHT22;8808;52.478;13.378;2023-03-24T00:12:34;11.80;99.90
17381;DHT22;8808;52.478;13.378;2023-03-24T00:15:05;11.90;99.90
17381;DHT22;8808;52.478;13.378;2023-03-24T00:17:32;11.80;99.90
17381;DHT22;8808;52.478;13.378;2023-03-24T00:20:00;11.80;99.90
17381;DHT22;8808;52.478;13.378;2023-03-24T00:22:33;11.90;99.90
17381;DHT22;8808;52.478;13.378;2023-03-24T00:25:00;11.90;99.90
17381;DHT22;8808;52.478;13.378;2023-03-24T00:27:29;11.90;99.90
17381;DHT22;8808;52.478;13.378;2023-03-24T00:30:02;11.90;99.90
17381;DHT22;8808;52.478;13.378;2023-03-24T00:32:29;11.80;99.90
17381;DHT22;8808;52.478;13.378;2023-03-24T00:34:56;11.90;99.90
17381;DHT22;8808;52.478;13.378;2023-03-24T00:37:25;11.90;99.90
17381;DHT22;8808;52.478;13.378;2023-03-24T00:39:53;11.90;99.90
17381;DHT22;8808;52.478;13.378;2023-03-24T00:42:20;11.80;99.90
17381;DHT22;8808;52.478;13.378;2023-03-24T00:44:49;11.90;99.90
17381;DHT22;8808;52.478;13.378;2023-03-24T00:47:18;11.90;99.90
17381;DHT22;8808;52.478;13.378;2023-03-24T00:49:51;11.90;99.90
17381;DHT22;8808;52.478;13.378;2023-03-24T00:52:21;11.90;99.90
17381;DHT22;8808;52.478;13.378;2023-03-24T00:54:51;11.90;99.90
17381;DHT22;8808;52.478;13.378;2023-03-24T00:57:24;11.80;99.90
17381;DHT22;8808;52.478;13.378;2023-03-24T00:59:52;11.80;99.90
17381;DHT22;8808;52.478;13.378;2023-03-24T01:02:22;11.90;99.90
17381;DHT22;8808;52.478;13.378;2023-03-24T01:04:52;11.80;99.90
17381;DHT22;8808;52.478;13.378;2023-03-24T01:07:19;11.80;99.90
17381;DHT22;8808;52.478;13.378;2023-03-24T01:09:47;11.80;99.90
17381;DHT22;8808;52.478;13.378;2023-03-24T01:12:23;11.80;99.90
17381;DHT22;8808;52.478;13.378;2023-03-24T01:14:51;11.90;99.90
17381;DHT22;8808;52.478;13.378;2023-03-24T01:17:18;11.80;99.90
17381;DHT22;8808;52.478;13.378;2023-03-24T01:19:48;11.70;99.90
17381;DHT22;8808;52.478;13.378;2023-03-24T01:22:15;11.80;99.90
17381;DHT22;8808;52.478;13.378;2023-03-24T01:24:42;11.80;99.90
17381;DHT22;8808;52.478;13.378;2023-03-24T01:27:10;11.90;99.90
17381;DHT22;8808;52.478;13.378;2023-03-24T01:29:39;11.90;99.90
17381;DHT22;8808;52.478;13.378;2023-03-24T01:32:07;11.80;99.90
17381;DHT22;8808;52.478;13.378;2023-03-24T01:34:34;11.80;99.90
17381;DHT22;8808;52.478;13.378;2023-03-24T01:37:02;11.80;99.90
17381;DHT22;8808;52.478;13.378;2023-03-24T01:39:29;11.90;99.90
17381;DHT22;8808;52.478;13.378;2023-03-24T01:41:57;11.80;99.90
17381;DHT22;8808;52.478;13.378;2023-03-24T01:44:30;11.80;99.90
17381;DHT22;8808;52.478;13.378;2023-03-24T01:46:59;11.70;99.90
17381;DHT22;8808;52.478;13.378;2023-03-24T01:49:30;11.70;99.90
17381;DHT22;8808;52.478;13.378;2023-03-24T01:52:01;11.70;99.90
17381;DHT22;8808;52.478;13.378;2023-03-24T01:54:32;11.80;99.90
17381;DHT22;8808;52.478;13.378;2023-03-24T01:57:02;11.80;99.90
17381;DHT22;8808;52.478;13.378;2023-03-24T01:59:34;11.80;99.90
17381;DHT22;8808;52.478;13.378;2023-03-24T02:04:41;11.80;99.90
17381;DHT22;8808;52.478;13.378;2023-03-24T02:07:11;11.80;99.90
17381;DHT22;8808;52.478;13.378;2023-03-24T02:09:40;11.90;99.90
17381;DHT22;8808;52.478;13.378;2023-03-24T02:12:07;11.80;99.90
17381;DHT22;8808;52.478;13.378;2023-03-24T02:14:34;11.80;99.90
17381;DHT22;8808;52.478;13.378;2023-03-24T02:17:21;11.80;99.90
17381;DHT22;8808;52.478;13.378;2023-03-24T02:26:33;11.90;99.90
17381;DHT22;8808;52.478;13.378;2023-03-24T02:32:58;11.90;99.90
17381;DHT22;8808;52.478;13.378;2023-03-24T02:41:53;12.00;99.90
17381;DHT22;8808;52.478;13.378;2023-03-24T02:44:29;12.00;99.90
17381;DHT22;8808;52.478;13.378;2023-03-24T02:47:03;12.10;99.90
17381;DHT22;8808;52.478;13.378;2023-03-24T02:49:42;12.10;99.90
17381;DHT22;8808;52.478;13.378;2023-03-24T02:52:16;12.10;99.90
17381;DHT22;8808;52.478;13.378;2023-03-24T02:54:48;12.10;99.90
17381;DHT22;8808;52.478;13.378;2023-03-24T02:57:21;12.00;99.90
17381;DHT22;8808;52.478;13.378;2023-03-24T02:59:55;12.00;99.90
17381;DHT22;8808;52.478;13.378;2023-03-24T03:02:26;11.90;99.90
17381;DHT22;8808;52.478;13.378;2023-03-24T03:04:58;11.80;99.90
17381;DHT22;8808;52.478;13.378;2023-03-24T03:07:30;11.80;99.90
17381;DHT22;8808;52.478;13.378;2023-03-24T03:10:01;11.80;99.90
17381;DHT22;8808;52.478;13.378;2023-03-24T03:12:33;11.80;99.90
17381;DHT22;8808;52.478;13.378;2023-03-24T03:15:05;11.80;99.90
17381;DHT22;8808;52.478;13.378;2023-03-24T03:17:36;11.80;99.90
17381;DHT22;8808;52.478;13.378;2023-03-24T03:20:08;11.80;99.90
17381;DHT22;8808;52.478;13.378;2023-03-24T03:22:39;11.80;99.90
17381;DHT22;8808;52.478;13.378;2023-03-24T03:25:09;11.80;99.90
17381;DHT22;8808;52.478;13.378;2023-03-24T03:27:40;11.80;99.90
17381;DHT22;8808;52.478;13.378;2023-03-24T03:30:12;11.70;99.90
17381;DHT22;8808;52.478;13.378;2023-03-24T03:32:46;11.80;99.90
17381;DHT22;8808;52.478;13.378;2023-03-24T03:35:23;11.80;99.90
17381;DHT22;8808;52.478;13.378;2023-03-24T03:37:54;11.70;99.90
17381;DHT22;8808;52.478;13.378;2023-03-24T03:40:26;11.70;99.90
17381;DHT22;8808;52.478;13.378;2023-03-24T03:42:55;11.80;99.90
17381;DHT22;8808;52.478;13.378;2023-03-24T03:45:22;11.80;99.90
17381;DHT22;8808;52.478;13.378;2023-03-24T03:47:49;11.70;99.90
17381;DHT22;8808;52.478;13.378;2023-03-24T03:50:17;11.70;99.90
17381;DHT22;8808;52.478;13.378;2023-03-24T03:52:44;11.80;99.90
17381;DHT22;8808;52.478;13.378;2023-03-24T03:55:11;11.80;99.90
17381;DHT22;8808;52.478;13.378;2023-03-24T03:57:39;11.80;99.90
17381;DHT22;8808;52.478;13.378;2023-03-24T04:00:13;11.80;99.90
17381;DHT22;8808;52.478;13.378;2023-03-24T04:02:51;11.80;99.90
17381;DHT22;8808;52.478;13.378;2023-03-24T04:05:26;11.80;99.90
17381;DHT22;8808;52.478;13.378;2023-03-24T04:08:14;11.80;99.90
17381;DHT22;8808;52.478;13.378;2023-03-24T04:10:55;11.80;99.90
17381;DHT22;8808;52.478;13.378;2023-03-24T04:13:32;11.80;99.90
17381;DHT22;8808;52.478;13.378;2023-03-24T04:16:07;11.80;99.90
17381;DHT22;8808;52.478;13.378;2023-03-24T04:18:49;11.80;99.90
17381;DHT22;8808;52.478;13.378;2023-03-24T04:21:39;11.90;99.90
17381;DHT22;8808;52.478;13.378;2023-03-24T04:24:21;11.90;99.90
17381;DHT22;8808;52.478;13.378;2023-03-24T04:26:55;11.90;99.90
17381;DHT22;8808;52.478;13.378;2023-03-24T04:29:31;12.00;99.90
17381;DHT22;8808;52.478;13.378;2023-03-24T04:32:06;12.00;99.90
17381;DHT22;8808;52.478;13.378;2023-03-24T04:34:38;12.00;99.90
17381;DHT22;8808;52.478;13.378;2023-03-24T04:37:10;12.10;99.90
17381;DHT22;8808;52.478;13.378;2023-03-24T04:39:40;12.10;99.90
17381;DHT22;8808;52.478;13.378;2023-03-24T04:42:11;12.00;99.90
17381;DHT22;8808;52.478;13.378;2023-03-24T04:44:40;12.10;99.90
17381;DHT22;8808;52.478;13.378;2023-03-24T04:47:09;12.10;99.90
17381;DHT22;8808;52.478;13.378;2023-03-24T04:49:37;12.10;99.90
17381;DHT22;8808;52.478;13.378;2023-03-24T04:52:05;12.20;99.90
17381;DHT22;8808;52.478;13.378;2023-03-24T04:54:33;12.10;99.90
17381;DHT22;8808;52.478;13.378;2023-03-24T04:57:01;12.20;99.90
17381;DHT22;8808;52.478;13.378;2023-03-24T04:59:28;12.20;99.90
17381;DHT22;8808;52.478;13.378;2023-03-24T05:01:55;12.20;99.90
17381;DHT22;8808;52.478;13.378;2023-03-24T05:04:25;12.20;99.90
17381;DHT22;8808;52.478;13.378;2023-03-24T05:06:53;12.20;99.90
17381;DHT22;8808;52.478;13.378;2023-03-24T05:09:21;12.20;99.90
17381;DHT22;8808;52.478;13.378;2023-03-24T05:11:49;12.30;99.90
17381;DHT22;8808;52.478;13.378;2023-03-24T05:14:17;12.30;99.90
17381;DHT22;8808;52.478;13.378;2023-03-24T05:16:44;12.30;99.90
17381;DHT22;8808;52.478;13.378;2023-03-24T05:19:11;12.30;99.90
17381;DHT22;8808;52.478;13.378;2023-03-24T05:21:39;12.30;99.90
17381;DHT22;8808;52.478;13.378;2023-03-24T05:24:07;12.40;99.90
17381;DHT22;8808;52.478;13.378;2023-03-24T05:26:34;12.40;99.90
17381;DHT22;8808;52.478;13.378;2023-03-24T05:29:01;12.40;99.90
17381;DHT22;8808;52.478;13.378;2023-03-24T05:31:28;12.40;99.90
17381;DHT22;8808;52.478;13.378;2023-03-24T05:33:55;12.50;99.90
17381;DHT22;8808;52.478;13.378;2023-03-24T05:36:22;12.40;99.90
17381;DHT22;8808;52.478;13.378;2023-03-24T05:38:50;12.50;99.90
17381;DHT22;8808;52.478;13.378;2023-03-24T05:41:17;12.40;99.90
17381;DHT22;8808;52.478;13.378;2023-03-24T05:43:44;12.50;99.90
17381;DHT22;8808;52.478;13.378;2023-03-24T05:46:11;12.50;99.90
17381;DHT22;8808;52.478;13.378;2023-03-24T05:48:38;12.50;99.90
17381;DHT22;8808;52.478;13.378;2023-03-24T05:51:05;12.50;99.90
17381;DHT22;8808;52.478;13.378;2023-03-24T05:53:32;12.50;99.90
17381;DHT22;8808;52.478;13.378;2023-03-24T05:56:00;12.50;99.90
17381;DHT22;8808;52.478;13.378;2023-03-24T05:58:27;12.50;99.90
17381;DHT22;8808;52.478;13.378;2023-03-24T06:00:55;12.60;99.90
17381;DHT22;8808;52.478;13.378;2023-03-24T06:03:22;12.60;99.90
17381;DHT22;8808;52.478;13.378;2023-03-24T06:05:48;12.60;99.90
17381;DHT22;8808;52.478;13.378;2023-03-24T06:08:16;12.60;99.90
17381;DHT22;8808;52.478;13.378;2023-03-24T06:10:43;12.60;99.90
17381;DHT22;8808;52.478;13.378;2023-03-24T06:13:12;12.60;99.90
17381;DHT22;8808;52.478;13.378;2023-03-24T06:15:39;12.70;99.90
17381;DHT22;8808;52.478;13.378;2023-03-24T06:18:07;12.70;99.90
17381;DHT22;8808;52.478;13.378;2023-03-24T06:20:34;12.70;99.90
17381;DHT22;8808;52.478;13.378;2023-03-24T06:23:01;12.70;99.90
17381;DHT22;8808;52.478;13.378;2023-03-24T06:25:28;12.70;99.90
17381;DHT22;8808;52.478;13.378;2023-03-24T06:27:55;12.70;99.90
17381;DHT22;8808;52.478;13.378;2023-03-24T06:30:31;12.70;99.90
17381;DHT22;8808;52.478;13.378;2023-03-24T06:32:58;12.80;99.90
17381;DHT22;8808;52.478;13.378;2023-03-24T06:35:25;12.80;99.90
17381;DHT22;8808;52.478;13.378;2023-03-24T06:37:52;12.80;99.90
17381;DHT22;8808;52.478;13.378;2023-03-24T06:40:19;12.90;99.90
17381;DHT22;8808;52.478;13.378;2023-03-24T06:42:47;12.90;99.90
17381;DHT22;8808;52.478;13.378;2023-03-24T06:45:15;12.90;99.90
17381;DHT22;8808;52.478;13.378;2023-03-24T06:47:43;12.90;99.90
17381;DHT22;8808;52.478;13.378;2023-03-24T06:50:10;13.00;99.90
17381;DHT22;8808;52.478;13.378;2023-03-24T06:52:37;13.00;99.90
17381;DHT22;8808;52.478;13.378;2023-03-24T06:55:06;13.10;99.90
17381;DHT22;8808;52.478;13.378;2023-03-24T06:57:33;13.00;99.90
17381;DHT22;8808;52.478;13.378;2023-03-24T07:00:01;13.10;99.90
17381;DHT22;8808;52.478;13.378;2023-03-24T07:02:30;13.10;99.90
17381;DHT22;8808;52.478;13.378;2023-03-24T07:05:02;13.10;99.90
17381;DHT22;8808;52.478;13.378;2023-03-24T07:07:32;13.10;99.90
17381;DHT22;8808;52.478;13.378;2023-03-24T07:10:00;13.10;99.90
17381;DHT22;8808;52.478;13.378;2023-03-24T07:12:27;13.20;99.90
17381;DHT22;8808;52.478;13.378;2023-03-24T07:14:55;13.30;99.90
17381;DHT22;8808;52.478;13.378;2023-03-24T07:17:22;13.30;99.90
17381;DHT22;8808;52.478;13.378;2023-03-24T07:19:49;13.30;99.90
17381;DHT22;8808;52.478;13.378;2023-03-24T07:22:17;13.30;99.90
17381;DHT22;8808;52.478;13.378;2023-03-24T07:24:45;13.30;99.90
17381;DHT22;8808;52.478;13.378;2023-03-24T07:27:12;13.40;99.90
17381;DHT22;8808;52.478;13.378;2023-03-24T07:29:39;13.40;99.90
17381;DHT22;8808;52.478;13.378;2023-03-24T07:32:06;13.50;99.90
17381;DHT22;8808;52.478;13.378;2023-03-24T07:34:34;13.60;99.90
17381;DHT22;8808;52.478;13.378;2023-03-24T07:37:02;13.80;99.90
17381;DHT22;8808;52.478;13.378;2023-03-24T07:39:30;13.90;99.90
17381;DHT22;8808;52.478;13.378;2023-03-24T07:41:57;14.00;99.90
17381;DHT22;8808;52.478;13.378;2023-03-24T07:44:24;14.00;99.90
17381;DHT22;8808;52.478;13.378;2023-03-24T07:46:51;14.00;99.90
17381;DHT22;8808;52.478;13.378;2023-03-24T07:49:19;13.90;99.90
17381;DHT22;8808;52.478;13.378;2023-03-24T07:51:46;13.90;99.90
17381;DHT22;8808;52.478;13.378;2023-03-24T07:54:12;13.90;99.90
17381;DHT22;8808;52.478;13.378;2023-03-24T07:56:41;13.90;99.90
17381;DHT22;8808;52.478;13.378;2023-03-24T07:59:08;13.80;99.90
17381;DHT22;8808;52.478;13.378;2023-03-24T08:01:35;13.70;99.90
17381;DHT22;8808;52.478;13.378;2023-03-24T08:04:03;13.70;99.90
17381;DHT22;8808;52.478;13.378;2023-03-24T08:06:30;13.60;99.90
17381;DHT22;8808;52.478;13.378;2023-03-24T08:08:57;13.60;99.90
17381;DHT22;8808;52.478;13.378;2023-03-24T08:11:24;13.60;99.90
17381;DHT22;8808;52.478;13.378;2023-03-24T08:13:52;13.50;99.90
17381;DHT22;8808;52.478;13.378;2023-03-24T08:16:22;13.50;99.90
17381;DHT22;8808;52.478;13.378;2023-03-24T08:18:50;13.60;99.90
17381;DHT22;8808;52.478;13.378;2023-03-24T08:21:17;13.50;99.90
17381;DHT22;8808;52.478;13.378;2023-03-24T08:23:44;13.40;99.90
17381;DHT22;8808;52.478;13.378;2023-03-24T08:26:11;13.40;99.90
17381;DHT22;8808;52.478;13.378;2023-03-24T08:28:38;13.50;99.90
17381;DHT22;8808;52.478;13.378;2023-03-24T08:31:07;13.40;99.90
17381;DHT22;8808;52.478;13.378;2023-03-24T08:33:35;13.40;99.90
17381;DHT22;8808;52.478;13.378;2023-03-24T08:36:02;13.40;99.90
17381;DHT22;8808;52.478;13.378;2023-03-24T08:38:29;13.40;99.90
17381;DHT22;8808;52.478;13.378;2023-03-24T08:40:57;13.40;99.90
17381;DHT22;8808;52.478;13.378;2023-03-24T08:43:27;13.40;99.90
17381;DHT22;8808;52.478;13.378;2023-03-24T08:45:54;13.40;99.90
17381;DHT22;8808;52.478;13.378;2023-03-24T08:48:23;13.40;99.90
17381;DHT22;8808;52.478;13.378;2023-03-24T08:50:50;13.40;99.90
17381;DHT22;8808;52.478;13.378;2023-03-24T08:53:18;13.40;99.90
17381;DHT22;8808;52.478;13.378;2023-03-24T08:55:45;13.40;99.90
17381;DHT22;8808;52.478;13.378;2023-03-24T08:58:13;13.40;99.90
17381;DHT22;8808;52.478;13.378;2023-03-24T09:00:40;13.50;99.90
17381;DHT22;8808;52.478;13.378;2023-03-24T09:03:10;13.50;99.90
17381;DHT22;8808;52.478;13.378;2023-03-24T09:05:39;13.60;99.90
17381;DHT22;8808;52.478;13.378;2023-03-24T09:08:06;13.60;99.90
17381;DHT22;8808;52.478;13.378;2023-03-24T09:10:34;13.60;99.90
17381;DHT22;8808;52.478;13.378;2023-03-24T09:13:00;13.70;99.90
17381;DHT22;8808;52.478;13.378;2023-03-24T09:15:29;13.70;99.90
17381;DHT22;8808;52.478;13.378;2023-03-24T09:17:56;13.70;99.90
17381;DHT22;8808;52.478;13.378;2023-03-24T09:20:23;13.70;99.90
17381;DHT22;8808;52.478;13.378;2023-03-24T09:22:51;13.80;99.90
17381;DHT22;8808;52.478;13.378;2023-03-24T09:25:19;13.80;99.90
17381;DHT22;8808;52.478;13.378;2023-03-24T09:27:46;13.80;99.90
17381;DHT22;8808;52.478;13.378;2023-03-24T09:30:15;13.80;99.90
17381;DHT22;8808;52.478;13.378;2023-03-24T09:32:43;13.80;99.90
17381;DHT22;8808;52.478;13.378;2023-03-24T09:35:11;13.80;99.90
17381;DHT22;8808;52.478;13.378;2023-03-24T09:37:38;13.80;99.90
17381;DHT22;8808;52.478;13.378;2023-03-24T09:40:17;13.90;99.90
17381;DHT22;8808;52.478;13.378;2023-03-24T09:42:50;14.10;99.90
17381;DHT22;8808;52.478;13.378;2023-03-24T09:45:20;14.30;99.90
17381;DHT22;8808;52.478;13.378;2023-03-24T09:47:51;14.50;99.90
17381;DHT22;8808;52.478;13.378;2023-03-24T09:50:21;14.60;99.90
17381;DHT22;8808;52.478;13.378;2023-03-24T09:52:52;14.60;99.90
17381;DHT22;8808;52.478;13.378;2023-03-24T09:55:24;14.80;99.90
17381;DHT22;8808;52.478;13.378;2023-03-24T09:57:53;15.00;99.90
17381;DHT22;8808;52.478;13.378;2023-03-24T10:00:24;15.00;99.90
17381;DHT22;8808;52.478;13.378;2023-03-24T10:02:55;15.00;99.90
17381;DHT22;8808;52.478;13.378;2023-03-24T10:05:31;15.00;99.90
17381;DHT22;8808;52.478;13.378;2023-03-24T10:08:09;15.00;99.90
17381;DHT22;8808;52.478;13.378;2023-03-24T10:10:47;15.00;99.90
17381;DHT22;8808;52.478;13.378;2023-03-24T10:13:20;15.00;99.90
17381;DHT22;8808;52.478;13.378;2023-03-24T10:15:57;15.40;99.90
17381;DHT22;8808;52.478;13.378;2023-03-24T10:18:32;15.20;99.90
17381;DHT22;8808;52.478;13.378;2023-03-24T10:21:06;15.10;99.90
17381;DHT22;8808;52.478;13.378;2023-03-24T10:23:43;15.00;99.90
17381;DHT22;8808;52.478;13.378;2023-03-24T10:26:26;15.00;99.90
17381;DHT22;8808;52.478;13.378;2023-03-24T10:31:46;15.00;99.90
17381;DHT22;8808;52.478;13.378;2023-03-24T10:34:14;14.90;99.90
17381;DHT22;8808;52.478;13.378;2023-03-24T10:36:42;15.00;99.90
17381;DHT22;8808;52.478;13.378;2023-03-24T10:39:13;15.20;99.90
17381;DHT22;8808;52.478;13.378;2023-03-24T10:41:43;15.30;99.90
17381;DHT22;8808;52.478;13.378;2023-03-24T10:44:11;15.60;99.90
17381;DHT22;8808;52.478;13.378;2023-03-24T10:46:44;18.70;99.90
17381;DHT22;8808;52.478;13.378;2023-03-24T10:49:15;17.30;99.90
17381;DHT22;8808;52.478;13.378;2023-03-24T10:51:45;16.20;99.90
17381;DHT22;8808;52.478;13.378;2023-03-24T10:54:16;16.00;99.90
17381;DHT22;8808;52.478;13.378;2023-03-24T10:56:47;15.80;99.90
17381;DHT22;8808;52.478;13.378;2023-03-24T10:59:26;15.70;99.90
17381;DHT22;8808;52.478;13.378;2023-03-24T11:02:03;15.60;99.90
17381;DHT22;8808;52.478;13.378;2023-03-24T11:04:37;15.70;99.90
17381;DHT22;8808;52.478;13.378;2023-03-24T11:07:13;15.80;99.90
17381;DHT22;8808;52.478;13.378;2023-03-24T11:09:42;15.70;99.90
17381;DHT22;8808;52.478;13.378;2023-03-24T11:12:21;17.40;99.90
17381;DHT22;8808;52.478;13.378;2023-03-24T11:14:48;18.60;99.90
17381;DHT22;8808;52.478;13.378;2023-03-24T11:17:19;20.20;99.90
17381;DHT22;8808;52.478;13.378;2023-03-24T11:19:51;17.40;99.90
17381;DHT22;8808;52.478;13.378;2023-03-24T11:22:19;16.60;99.90
17381;DHT22;8808;52.478;13.378;2023-03-24T11:24:49;16.30;99.90
17381;DHT22;8808;52.478;13.378;2023-03-24T11:27:18;16.80;99.90
17381;DHT22;8808;52.478;13.378;2023-03-24T11:29:49;17.00;99.90
17381;DHT22;8808;52.478;13.378;2023-03-24T11:32:21;16.70;99.90
17381;DHT22;8808;52.478;13.378;2023-03-24T11:34:53;16.60;99.90
17381;DHT22;8808;52.478;13.378;2023-03-24T11:37:24;16.40;99.90
17381;DHT22;8808;52.478;13.378;2023-03-24T11:40:13;16.50;99.90
17381;DHT22;8808;52.478;13.378;2023-03-24T11:42:42;16.70;99.90
17381;DHT22;8808;52.478;13.378;2023-03-24T11:45:33;17.00;99.90
17381;DHT22;8808;52.478;13.378;2023-03-24T11:48:03;17.00;99.90
17381;DHT22;8808;52.478;13.378;2023-03-24T11:50:34;16.90;99.90
17381;DHT22;8808;52.478;13.378;2023-03-24T11:53:09;17.00;99.90
17381;DHT22;8808;52.478;13.378;2023-03-24T11:55:43;17.10;99.90
17381;DHT22;8808;52.478;13.378;2023-03-24T11:58:18;17.10;99.90
17381;DHT22;8808;52.478;13.378;2023-03-24T12:00:52;16.90;99.90
17381;DHT22;8808;52.478;13.378;2023-03-24T12:03:38;16.80;99.90
17381;DHT22;8808;52.478;13.378;2023-03-24T12:06:18;16.80;99.90
17381;DHT22;8808;52.478;13.378;2023-03-24T12:08:58;17.10;99.90
17381;DHT22;8808;52.478;13.378;2023-03-24T12:11:36;16.90;99.90
17381;DHT22;8808;52.478;13.378;2023-03-24T12:14:05;16.70;99.90
17381;DHT22;8808;52.478;13.378;2023-03-24T12:16:42;16.80;99.90
17381;DHT22;8808;52.478;13.378;2023-03-24T12:19:32;16.70;99.90
17381;DHT22;8808;52.478;13.378;2023-03-24T12:22:11;16.80;99.90
17381;DHT22;8808;52.478;13.378;2023-03-24T12:24:54;16.80;99.90
17381;DHT22;8808;52.478;13.378;2023-03-24T12:27:30;16.80;99.90
17381;DHT22;8808;52.478;13.378;2023-03-24T12:30:01;16.80;99.90
17381;DHT22;8808;52.478;13.378;2023-03-24T12:32:54;16.70;99.90
17381;DHT22;8808;52.478;13.378;2023-03-24T12:35:46;16.70;99.90
17381;DHT22;8808;52.478;13.378;2023-03-24T12:38:28;16.70;99.90
17381;DHT22;8808;52.478;13.378;2023-03-24T12:41:25;16.60;99.90
17381;DHT22;8808;52.478;13.378;2023-03-24T12:46:58;16.80;99.90
17381;DHT22;8808;52.478;13.378;2023-03-24T12:49:56;16.50;99.90
17381;DHT22;8808;52.478;13.378;2023-03-24T12:52:40;16.40;99.90
17381;DHT22;8808;52.478;13.378;2023-03-24T12:55:14;16.40;99.90
17381;DHT22;8808;52.478;13.378;2023-03-24T12:57:47;16.20;99.90
17381;DHT22;8808;52.478;13.378;2023-03-24T13:00:21;16.20;99.90
17381;DHT22;8808;52.478;13.378;2023-03-24T13:02:52;16.10;99.90
17381;DHT22;8808;52.478;13.378;2023-03-24T13:05:25;16.00;99.90
17381;DHT22;8808;52.478;13.378;2023-03-24T13:07:58;16.10;99.90
17381;DHT22;8808;52.478;13.378;2023-03-24T13:10:28;16.10;99.90
17381;DHT22;8808;52.478;13.378;2023-03-24T13:12:59;15.90;99.90
17381;DHT22;8808;52.478;13.378;2023-03-24T13:15:32;15.80;99.90
17381;DHT22;8808;52.478;13.378;2023-03-24T13:18:09;15.80;99.90
17381;DHT22;8808;52.478;13.378;2023-03-24T13:20:44;15.70;99.90
17381;DHT22;8808;52.478;13.378;2023-03-24T13:23:26;15.60;99.90
17381;DHT22;8808;52.478;13.378;2023-03-24T13:25:57;16.30;99.90
17381;DHT22;8808;52.478;13.378;2023-03-24T13:28:31;15.60;99.90
17381;DHT22;8808;52.478;13.378;2023-03-24T13:31:01;15.40;99.90
17381;DHT22;8808;52.478;13.378;2023-03-24T13:33:30;15.30;99.90
17381;DHT22;8808;52.478;13.378;2023-03-24T13:36:10;15.40;99.90
17381;DHT22;8808;52.478;13.378;2023-03-24T13:38:44;15.50;99.90
17381;DHT22;8808;52.478;13.378;2023-03-24T13:41:17;15.30;99.90
17381;DHT22;8808;52.478;13.378;2023-03-24T13:43:47;15.60;99.90
17381;DHT22;8808;52.478;13.378;2023-03-24T13:46:15;15.60;99.90
17381;DHT22;8808;52.478;13.378;2023-03-24T13:48:45;15.50;99.90
17381;DHT22;8808;52.478;13.378;2023-03-24T13:51:19;15.60;99.90
17381;DHT22;8808;52.478;13.378;2023-03-24T13:53:51;15.50;99.90
17381;DHT22;8808;52.478;13.378;2023-03-24T13:56:25;15.50;99.90
17381;DHT22;8808;52.478;13.378;2023-03-24T13:59:22;15.60;99.90
17381;DHT22;8808;52.478;13.378;2023-03-24T14:05:07;15.40;99.90
17381;DHT22;8808;52.478;13.378;2023-03-24T14:07:47;15.30;99.90
17381;DHT22;8808;52.478;13.378;2023-03-24T14:10:36;15.40;99.90
17381;DHT22;8808;52.478;13.378;2023-03-24T14:13:13;15.30;99.90
17381;DHT22;8808;52.478;13.378;2023-03-24T14:15:45;17.30;99.90
17381;DHT22;8808;52.478;13.378;2023-03-24T14:18:17;18.30;99.90
17381;DHT22;8808;52.478;13.378;2023-03-24T14:21:04;16.20;99.90
17381;DHT22;8808;52.478;13.378;2023-03-24T14:23:36;15.80;99.90
17381;DHT22;8808;52.478;13.378;2023-03-24T14:26:07;15.60;99.90
17381;DHT22;8808;52.478;13.378;2023-03-24T14:28:38;17.40;99.90
17381;DHT22;8808;52.478;13.378;2023-03-24T14:31:18;15.50;99.90
17381;DHT22;8808;52.478;13.378;2023-03-24T14:34:07;14.80;99.90
17381;DHT22;8808;52.478;13.378;2023-03-24T14:36:36;14.60;99.90
17381;DHT22;8808;52.478;13.378;2023-03-24T14:39:23;14.60;99.90
17381;DHT22;8808;52.478;13.378;2023-03-24T14:41:52;14.70;99.90
17381;DHT22;8808;52.478;13.378;2023-03-24T14:44:53;14.80;99.90
17381;DHT22;8808;52.478;13.378;2023-03-24T14:47:22;14.90;99.90
17381;DHT22;8808;52.478;13.378;2023-03-24T14:49:51;14.90;99.90
17381;DHT22;8808;52.478;13.378;2023-03-24T14:52:21;15.00;99.90
17381;DHT22;8808;52.478;13.378;2023-03-24T14:54:53;15.00;99.90
17381;DHT22;8808;52.478;13.378;2023-03-24T14:57:23;15.00;99.90
17381;DHT22;8808;52.478;13.378;2023-03-24T14:59:57;15.10;99.90
17381;DHT22;8808;52.478;13.378;2023-03-24T15:02:31;15.10;99.90
17381;DHT22;8808;52.478;13.378;2023-03-24T15:05:22;15.20;99.90
17381;DHT22;8808;52.478;13.378;2023-03-24T15:08:03;15.20;99.90
17381;DHT22;8808;52.478;13.378;2023-03-24T15:10:39;15.20;99.90
17381;DHT22;8808;52.478;13.378;2023-03-24T15:13:32;15.30;99.90
17381;DHT22;8808;52.478;13.378;2023-03-24T15:16:02;15.30;99.90
17381;DHT22;8808;52.478;13.378;2023-03-24T15:18:31;15.30;99.90
17381;DHT22;8808;52.478;13.378;2023-03-24T15:20:58;15.30;99.90
17381;DHT22;8808;52.478;13.378;2023-03-24T15:23:26;15.30;99.90
17381;DHT22;8808;52.478;13.378;2023-03-24T15:25:55;15.40;99.90
17381;DHT22;8808;52.478;13.378;2023-03-24T15:28:25;15.30;99.90
17381;DHT22;8808;52.478;13.378;2023-03-24T15:30:53;15.30;99.90
17381;DHT22;8808;52.478;13.378;2023-03-24T15:33:21;15.30;99.90
17381;DHT22;8808;52.478;13.378;2023-03-24T15:35:54;15.30;99.90
17381;DHT22;8808;52.478;13.378;2023-03-24T15:38:27;15.40;99.90
17381;DHT22;8808;52.478;13.378;2023-03-24T15:40:58;15.50;99.90
17381;DHT22;8808;52.478;13.378;2023-03-24T15:43:26;15.50;99.90
17381;DHT22;8808;52.478;13.378;2023-03-24T15:45:54;15.40;99.90
17381;DHT22;8808;52.478;13.378;2023-03-24T15:48:29;15.50;99.90
17381;DHT22;8808;52.478;13.378;2023-03-24T15:50:59;15.40;99.90
17381;DHT22;8808;52.478;13.378;2023-03-24T15:53:28;15.40;99.90
17381;DHT22;8808;52.478;13.378;2023-03-24T15:56:06;15.30;99.90
17381;DHT22;8808;52.478;13.378;2023-03-24T15:58:46;15.20;99.90
17381;DHT22;8808;52.478;13.378;2023-03-24T16:01:15;15.20;99.90
17381;DHT22;8808;52.478;13.378;2023-03-24T16:03:44;15.10;99.90
17381;DHT22;8808;52.478;13.378;2023-03-24T16:06:14;15.10;99.90
17381;DHT22;8808;52.478;13.378;2023-03-24T16:08:42;15.00;99.90
17381;DHT22;8808;52.478;13.378;2023-03-24T16:11:12;15.00;99.90
17381;DHT22;8808;52.478;13.378;2023-03-24T16:13:41;15.00;99.90
17381;DHT22;8808;52.478;13.378;2023-03-24T16:16:21;15.00;99.90
17381;DHT22;8808;52.478;13.378;2023-03-24T16:18:49;14.90;99.90
17381;DHT22;8808;52.478;13.378;2023-03-24T16:21:18;14.90;99.90
17381;DHT22;8808;52.478;13.378;2023-03-24T16:23:46;14.80;99.90